Flight Track Log - Related Links

Times and Time Zones

All times are in EDT time to prevent confusion due to time zone crossing. See the ELJ309 flight status page for this flight to view local times or setup timezone preferences in your user account.

Time Position Orientation Groundspeed Altitude Reporting Facility
EDT Latitude Longitude Course Direction KTS MPH feet Rate Location/Type
Sat 11:03:03 AM 26.2106 -81.7169 339° North 201 231 3,300  Level Miami Center
Sat 11:04:03 AM 26.2403 -81.7667 304° West 225 259 6,100 2,600 Climbing Miami Center
Sat 11:05:03 AM 26.2186 -81.8492 254° West 212 244 8,500 2,000 Climbing Miami Center
Sat 11:06:03 AM 26.2008 -81.9386 258° West 259 298 10,100 1,800 Climbing Miami Center
Sat 11:07:03 AM 26.2014 -82.0406 270° West 297 342 12,100 1,950 Climbing Miami Center
Sat 11:08:00 AM 26.2228 -82.4073 339° North  Level FlightAware
Sat 11:08:03 AM 26.2108 -82.1311 277° West 323 372 14,000  Level Miami Center
Sat 11:09:03 AM 26.2194 -82.2403 275° West 344 396 16,000 1,950 Climbing Miami Center
Sat 11:10:03 AM 26.2278 -82.3472 275° West 354 407 17,900 2,100 Climbing Miami Center
Sat 11:11:03 AM 26.2361 -82.4586 275° West 360 414 20,200 1,900 Climbing Miami Center
Sat 11:12:03 AM 26.2717 -82.5644 291° West 359 413 21,700 1,350 Climbing Miami Center
Sat 11:13:03 AM 26.3547 -82.6311 324° Northwest 357 411 22,900 1,350 Climbing Miami Center
Sat 11:14:03 AM 26.4525 -82.6914 331° Northwest 364 419 24,400 1,500 Climbing Miami Center
Sat 11:15:03 AM 26.5506 -82.7450 334° Northwest 379 436 25,900 1,500 Climbing Miami Center
Sat 11:16:03 AM 26.6489 -82.7894 338° Northwest 384 442 27,400 1,400 Climbing Miami Center
Sat 11:17:03 AM 26.7517 -82.8294 341° North 384 442 28,700 1,150 Climbing Miami Center
Sat 11:18:03 AM 26.8539 -82.8811 336° Northwest 389 448 29,700 1,000 Climbing Miami Center
Sat 11:19:03 AM 26.9583 -82.9286 338° Northwest 395 455 30,700 1,050 Climbing Miami Center
Sat 11:20:03 AM 27.0650 -82.9714 340° North 400 460 31,800 1,050 Climbing Miami Center
Sat 11:21:03 AM 27.1694 -83.0167 339° North 400 460 32,800 1,000 Climbing Miami Center
Sat 11:22:03 AM 27.2842 -83.0669 339° North 405 466 33,800 1,050 Climbing Miami Center
Sat 11:23:03 AM 27.3956 -83.0942 348° North 405 466 34,900 1,150 Climbing Miami Center
Sat 11:24:03 AM 27.5058 -83.1025 356° North 398 458 36,100 1,200 Climbing Miami Center
Sat 11:25:03 AM 27.6119 -83.1083 357° North 387 445 37,300 1,100 Climbing Miami Center
Sat 11:26:03 AM 27.7178 -83.1186 355° North 387 445 38,300 1,050 Climbing Miami Center
Sat 11:27:03 AM 27.8194 -83.1289 355° North 382 440 39,400 850 Climbing Miami Center
Sat 11:28:03 AM 27.9233 -83.1394 355° North 370 426 40,000 213 Climbing Miami Center
Sat 11:29:52 AM 28.1164 -83.1397 360° North 372 428 40,000  Level Jacksonville Center
Sat 11:30:52 AM 28.2289 -83.1400 360° North 390 449 40,000  Level Jacksonville Center
Sat 11:31:52 AM 28.3417 -83.1497 356° North 395 455 40,000  Level Jacksonville Center
Sat 11:32:52 AM 28.4544 -83.1594 356° North 406 467 40,000  Level Jacksonville Center
Sat 11:33:52 AM 28.5669 -83.1692 356° North 406 467 40,000  Level Jacksonville Center
Sat 11:34:52 AM 28.6817 -83.1789 356° North 406 467 40,000  Level Jacksonville Center
Sat 11:35:52 AM 28.7944 -83.1886 356° North 406 467 40,000  Level Jacksonville Center
Sat 11:36:52 AM 28.9092 -83.2008 355° North 406 467 40,000  Level Jacksonville Center
Sat 11:37:52 AM 29.0239 -83.2108 356° North 406 467 40,000  Level Jacksonville Center
Sat 11:38:52 AM 29.1367 -83.2231 355° North 406 467 40,000  Level Jacksonville Center
Sat 11:39:52 AM 29.2514 -83.2328 356° North 406 467 40,000  Level Jacksonville Center
Sat 11:40:52 AM 29.3661 -83.2428 356° North 406 467 40,000  Level Jacksonville Center
Sat 11:41:52 AM 29.4789 -83.2553 354° North 406 467 40,000  Level Jacksonville Center
Sat 11:42:52 AM 29.5917 -83.2653 356° North 406 467 40,000  Level Jacksonville Center
Sat 11:43:52 AM 29.7044 -83.2775 355° North 406 467 40,000  Level Jacksonville Center
Sat 11:44:52 AM 29.8211 -83.2875 356° North 406 467 40,000  Level Jacksonville Center
Sat 11:45:52 AM 29.9339 -83.2978 355° North 406 467 40,000  Level Jacksonville Center
Sat 11:46:52 AM 30.0342 -83.3053 356° North 406 467 40,000  Level Jacksonville Center
Sat 11:47:52 AM 30.1469 -83.3153 356° North 406 467 40,000  Level Jacksonville Center
Sat 11:48:52 AM 30.2594 -83.3278 355° North 406 467 40,000  Level Jacksonville Center
Sat 11:49:52 AM 30.3744 -83.3356 357° North 406 467 40,000  Level Jacksonville Center
Sat 11:50:52 AM 30.4850 -83.3458 355° North 406 467 40,000  Level Jacksonville Center
Sat 11:51:52 AM 30.5997 -83.3558 356° North 406 467 40,000  Level Jacksonville Center
Sat 11:52:52 AM 30.7144 -83.3711 353° North 406 467 40,000  Level Jacksonville Center
Sat 11:53:52 AM 30.8253 -83.3789 357° North 406 467 40,000  Level Jacksonville Center
Sat 11:54:52 AM 30.9336 -83.3867 356° North 394 453 40,000  Level Jacksonville Center
Sat 11:55:52 AM 31.0464 -83.4017 353° North 399 459 40,000  Level Jacksonville Center
Sat 11:56:52 AM 31.1592 -83.4122 355° North 399 459 40,000  Level Jacksonville Center
Sat 11:58:29 AM 31.3422 -83.4311 355° North 410 472 40,000  Level Atlanta Center
Sat 11:59:29 AM 31.4572 -83.4400 356° North 410 472 40,000  Level Atlanta Center
Sat 12:00:29 PM 31.5700 -83.4489 356° North 404 465 40,000  Level Atlanta Center
Sat 12:01:29 PM 31.6847 -83.4606 355° North 404 465 40,000  Level Atlanta Center
Sat 12:02:29 PM 31.8122 -83.4744 355° North 404 465 40,000  Level Atlanta Center
Sat 12:03:29 PM 31.9269 -83.4858 355° North 411 473 40,000  Level Atlanta Center
Sat 12:04:29 PM 32.0417 -83.4975 355° North 411 473 40,000  Level Atlanta Center
Sat 12:05:29 PM 32.1567 -83.5089 355° North 406 467 40,000  Level Atlanta Center
Sat 12:06:29 PM 32.2694 -83.5206 355° North 406 467 40,000  Level Atlanta Center
Sat 12:07:29 PM 32.3800 -83.5322 355° North 406 467 40,000  Level Atlanta Center
Sat 12:08:29 PM 32.4908 -83.5439 355° North 406 467 40,000  Level Atlanta Center
Sat 12:09:29 PM 32.6036 -83.5531 356° North 406 467 40,000  Level Atlanta Center
Sat 12:10:29 PM 32.7164 -83.5647 355° North 406 467 40,000  Level Atlanta Center
Sat 12:11:29 PM 32.8269 -83.5767 355° North 406 467 40,000  Level Atlanta Center
Sat 12:12:29 PM 32.9375 -83.5883 355° North 406 467 40,000  Level Atlanta Center
Sat 12:13:29 PM 33.0442 -83.6003 355° North 406 467 40,000  Level Atlanta Center
Sat 12:14:29 PM 33.1569 -83.6072 357° North 406 467 40,000  Level Atlanta Center
Sat 12:15:29 PM 33.2697 -83.6214 354° North 406 467 40,000  Level Atlanta Center
Sat 12:16:29 PM 33.3781 -83.6308 356° North 406 467 40,000  Level Atlanta Center
Sat 12:17:29 PM 33.4908 -83.6428 355° North 406 467 40,000  Level Atlanta Center
Sat 12:18:29 PM 33.6036 -83.6522 356° North 406 467 40,000  Level Atlanta Center
Sat 12:19:29 PM 33.7144 -83.6642 355° North 401 461 40,000  Level Atlanta Center
Sat 12:20:29 PM 33.8272 -83.6761 355° North 406 467 40,000  Level Atlanta Center
Sat 12:21:29 PM 33.9397 -83.6858 356° North 406 467 40,000  Level Atlanta Center
Sat 12:22:29 PM 34.0525 -83.6978 355° North 406 467 40,000  Level Atlanta Center
Sat 12:23:29 PM 34.1675 -83.7100 355° North 406 467 40,000  Level Atlanta Center
Sat 12:24:29 PM 34.2781 -83.7194 356° North 406 467 40,000  Level Atlanta Center
Sat 12:25:29 PM 34.3928 -83.7317 355° North 406 467 40,000  Level Atlanta Center
Sat 12:26:29 PM 34.4953 -83.7439 354° North 411 473 40,000  Level Atlanta Center
Sat 12:27:29 PM 34.6078 -83.7561 355° North 405 466 40,000  Level Atlanta Center
Sat 12:28:29 PM 34.7228 -83.7683 355° North 410 472 40,000  Level Atlanta Center
Sat 12:29:29 PM 34.8353 -83.7781 356° North 405 466 40,000  Level Atlanta Center
Sat 12:30:29 PM 34.9544 -83.7956 353° North 399 459 40,000  Level Atlanta Center
Sat 12:31:29 PM 35.0692 -83.8053 356° North 399 459 40,000  Level Atlanta Center
Sat 12:32:29 PM 35.1819 -83.8178 355° North 404 465 40,000  Level Atlanta Center
Sat 12:33:29 PM 35.2967 -83.8328 354° North 410 472 40,000  Level Atlanta Center
Sat 12:34:29 PM 35.4114 -83.8425 356° North 410 472 40,000  Level Atlanta Center
Sat 12:35:29 PM 35.5261 -83.8575 354° North 410 472 40,000  Level Atlanta Center
Sat 12:36:29 PM 35.6431 -83.8675 356° North 410 472 40,000  Level Atlanta Center
Sat 12:37:29 PM 35.7578 -83.8800 355° North 410 472 40,000  Level Atlanta Center
Sat 12:38:29 PM 35.8706 -83.8928 355° North 410 472 40,000  Level Atlanta Center
Sat 12:39:29 PM 35.9831 -83.8822 North 404 465 40,000  Level Atlanta Center
Sat 12:40:29 PM 36.0956 -83.8614 North 404 465 40,000  Level Atlanta Center
Sat 12:42:03 PM 36.2731 -83.8283 North 411 473 40,000  Level Indianapolis Center
Sat 12:43:05 PM 36.3872 -83.8092 North 414 476 40,000  Level Indianapolis Center
Sat 12:44:06 PM 36.5044 -83.7881 North 424 488 40,000 -244 Level Indianapolis Center
Sat 12:45:08 PM 36.6275 -83.7683 North 428 493 39,500 -732 Descending Indianapolis Center
Sat 12:46:09 PM 36.7475 -83.7486 North 429 494 38,500 -1,073 Descending Indianapolis Center
Sat 12:47:11 PM 36.8653 -83.7283 North 423 487 37,300 -1,220 Descending Indianapolis Center
Sat 12:48:12 PM 36.9797 -83.7075 North 413 475 36,000 -1,328 Descending Indianapolis Center
Sat 12:49:13 PM 37.0975 -83.6869 North 420 483 34,600 -1,756 Descending Indianapolis Center
Sat 12:50:15 PM 37.2175 -83.6644 North 430 495 32,400 -2,293 Descending Indianapolis Center
Sat 12:51:16 PM 37.3431 -83.6425 North 447 514 29,900 -2,634 Descending Indianapolis Center
Sat 12:52:18 PM 37.4900 -83.6169 North 451 519 27,000 -2,732 Descending Indianapolis Center
Sat 12:53:19 PM 37.6153 -83.5997 North 449 517 24,300 -2,634 Descending Indianapolis Center
Sat 12:54:21 PM 37.7275 -83.6386 345° North 419 482 21,600 -2,146 Descending Indianapolis Center
Sat 12:55:22 PM 37.8167 -83.7072 329° Northwest 377 434 19,900 -927 Descending Indianapolis Center
Sat 12:56:24 PM 37.9058 -83.7717 330° Northwest 369 425 19,700 -1,024 Descending Indianapolis Center
Sat 12:57:25 PM 37.9981 -83.8397 330° Northwest 379 436 17,800 -1,512 Descending Indianapolis Center
Sat 12:58:27 PM 38.0892 -83.9042 331° Northwest 374 430 16,600 -1,268 Descending Indianapolis Center
Sat 12:59:28 PM 38.1800 -83.9681 331° Northwest 369 425 15,200 -1,561 Descending Indianapolis Center
Sat 01:00:30 PM 38.2833 -84.0456 330° Northwest 370 426 13,400 -1,610 Descending Indianapolis Center
Sat 01:01:31 PM 38.3739 -84.1100 331° Northwest 369 425 11,900 -1,171 Descending Indianapolis Center
Sat 01:02:33 PM 38.4619 -84.1739 330° Northwest 364 419 11,000 -439 Descending Indianapolis Center
Sat 01:03:34 PM 38.5447 -84.2328 331° Northwest 342 394 11,000  Level Indianapolis Center
Sat 01:04:36 PM 38.6272 -84.2931 330° Northwest 340 391 11,000 -49 Level Indianapolis Center
Sat 01:05:37 PM 38.7008 -84.3869 315° West 347 399 10,900 -49 Descending Indianapolis Center
Sat 01:06:39 PM 38.7647 -84.4825 311° West 349 402 10,900 -341 Level Indianapolis Center
Sat 01:07:40 PM 38.8500 -84.5119 345° North 325 374 10,200 -886 Descending Indianapolis Center
Sat 01:08:07 PM 38.8833 -84.5167 354° North 283 326 9,600 -960 Descending Cincinnati TRACON
Sat 01:08:55 PM 38.9500 -84.5167 360° North 289 333 9,000 -1,000 Descending Cincinnati TRACON
Sat 01:09:55 PM 39.0333 -84.5333 351° North 291 335 7,800 -1,250 Descending Cincinnati TRACON
Sat 01:10:55 PM 39.1167 -84.5333 360° North 260 299 6,500 -911 Descending Cincinnati TRACON
Sat 01:11:47 PM 39.1536 -84.5611 330° Northwest 246 283 6,100 -1,300 Descending Indianapolis Center
Sat 01:12:55 PM 39.1667 -84.6333 283° West 136 157 3,900 -1,547 Descending Cincinnati TRACON
Sat 01:13:55 PM 39.1500 -84.6667 237° Southwest 125 144 2,800 -950 Descending Cincinnati TRACON
Sat 01:14:55 PM 39.1167 -84.6667 180° South 119 137 2,000 -850 Descending Cincinnati TRACON
Sat 01:15:55 PM 39.0833 -84.6667 180° South 118 136 1,100 -900 Descending Cincinnati TRACON
Sat 01:18:00 PM 39.0488 -84.6678 270° West  Level Estimated

Login

Don't have an account? Register now (free) for customized features, flight alerts, and more!